Fame, Mississippi
Current Conditions -  °F | °C
As of 4:35 PM on Tuesday 21 Oct 2014 (Local Time) from KSTF Reporting Station
Scattered Clouds Scattered Clouds  
Wind Chill: 77°   Ceiling: Unl
Heat Index: 78°   Visibility: 10mi
Dew Point: 54°   Wind: 5mph
Humidity: 44%   Direction: 340°NNW
Pressure: 30.01"   Gusts: NA
Location:  33.6106°N, 89.3673°W
Report Text: KSTF 212135Z AUTO 34004KT 10SM SCT050 25/12 A3001 RMK AO2
Loading
Personal Weather Stations






























Interactive Weather Map New forecast layout! Learn more

10-Day Weather Forecast

Advertisements
Track Severe Weather on mobile